createdAt,value
2018-02-25T00:00:33.349Z,4.43
2018-02-25T00:03:02.974Z,5.50
2018-02-25T00:05:32.752Z,6.32
2018-02-25T00:08:03.009Z,3.95
2018-02-25T00:10:32.992Z,6.15
2018-02-25T00:13:03.070Z,4.00
2018-02-25T00:15:39.132Z,8.00
2018-02-25T00:18:07.479Z,4.43
2018-02-25T00:20:35.776Z,6.37
2018-02-25T00:23:04.531Z,5.03
2018-02-25T00:25:34.377Z,6.30
2018-02-25T00:28:02.653Z,6.05
2018-02-25T00:30:31.131Z,5.12
2018-02-25T00:32:59.425Z,6.85
2018-02-25T00:35:27.717Z,5.47
2018-02-25T00:37:58.165Z,5.18
2018-02-25T00:40:26.694Z,6.07
2018-02-25T00:42:58.225Z,6.30
2018-02-25T00:45:26.516Z,5.18
2018-02-25T00:47:57.687Z,13.52
2018-02-25T00:50:26.269Z,6.78
2018-02-25T00:52:58.229Z,31.55
2018-02-25T00:55:26.565Z,4.95
2018-02-25T00:57:58.638Z,4.85
2018-02-25T01:00:26.924Z,5.87
2018-02-25T01:02:59.685Z,6.05
2018-02-25T01:05:27.981Z,5.62
2018-02-25T01:07:57.421Z,6.43
2018-02-25T01:10:25.865Z,5.97
2018-02-25T01:12:58.028Z,4.22
2018-02-25T01:15:26.650Z,6.50
2018-02-25T01:17:58.209Z,5.30
2018-02-25T01:20:26.494Z,5.22
2018-02-25T01:22:57.339Z,5.37
2018-02-25T01:25:25.629Z,5.90
2018-02-25T01:28:00.902Z,5.32
2018-02-25T01:30:29.176Z,6.20
2018-02-25T01:32:57.508Z,6.07
2018-02-25T01:35:25.784Z,7.10
2018-02-25T01:38:01.034Z,6.30
2018-02-25T01:40:29.478Z,5.15
2018-02-25T01:42:57.950Z,7.40
2018-02-25T01:45:26.293Z,8.00
2018-02-25T01:47:58.574Z,6.53
2018-02-25T01:50:26.853Z,6.12
2018-02-25T01:52:58.797Z,6.45
2018-02-25T01:55:27.090Z,6.32
2018-02-25T01:57:59.239Z,6.45
2018-02-25T02:00:27.696Z,5.82
2018-02-25T02:02:59.217Z,7.85
2018-02-25T02:05:27.497Z,6.43
2018-02-25T02:07:57.426Z,7.20
2018-02-25T02:10:26.184Z,7.43
2018-02-25T02:12:57.334Z,5.22
2018-02-25T02:15:25.652Z,7.95
2018-02-25T02:18:00.610Z,6.45
2018-02-25T02:20:29.063Z,7.32
2018-02-25T02:22:58.186Z,8.60
2018-02-25T02:25:26.834Z,6.50
2018-02-25T02:27:58.648Z,9.02
2018-02-25T02:30:26.958Z,5.55
2018-02-25T02:32:58.615Z,6.12
2018-02-25T02:35:26.907Z,7.68
2018-02-25T02:37:58.105Z,8.52
2018-02-25T02:40:27.042Z,7.70
2018-02-25T02:42:58.676Z,5.72
2018-02-25T02:45:27.121Z,7.28
2018-02-25T02:47:58.881Z,7.45
2018-02-25T02:50:27.184Z,7.35
2018-02-25T02:52:58.408Z,6.05
2018-02-25T02:55:26.967Z,7.47
2018-02-25T02:57:59.015Z,6.05
2018-02-25T03:00:27.502Z,6.62
2018-02-25T03:02:57.533Z,7.80
2018-02-25T03:05:25.964Z,7.78
2018-02-25T03:07:58.002Z,6.60
2018-02-25T03:10:26.304Z,6.05
2018-02-25T03:12:58.458Z,7.18
2018-02-25T03:15:26.734Z,7.32
2018-02-25T03:17:58.057Z,9.10
2018-02-25T03:20:26.517Z,9.10
2018-02-25T03:22:58.339Z,9.40
2018-02-25T03:25:26.630Z,7.75
2018-02-25T03:27:57.424Z,7.20
2018-02-25T03:30:25.723Z,7.87
2018-02-25T03:33:02.048Z,7.40
2018-02-25T03:35:30.313Z,8.27
2018-02-25T03:37:58.612Z,8.15
2018-02-25T03:40:26.912Z,10.15
2018-02-25T03:42:58.742Z,10.57
2018-02-25T03:45:27.037Z,7.62
2018-02-25T03:47:58.889Z,9.55
2018-02-25T03:50:27.181Z,7.05
2018-02-25T03:52:59.212Z,9.05
2018-02-25T03:55:27.486Z,6.95
2018-02-25T03:57:58.750Z,6.43
2018-02-25T04:00:27.007Z,7.75
2018-02-25T04:02:58.221Z,7.10
2018-02-25T04:05:26.729Z,7.37
2018-02-25T04:07:58.509Z,6.80
2018-02-25T04:10:26.805Z,8.32
2018-02-25T04:12:57.998Z,8.32
2018-02-25T04:15:26.377Z,7.40
2018-02-25T04:17:58.289Z,7.97
2018-02-25T04:20:26.596Z,6.65
2018-02-25T04:22:59.185Z,7.80
2018-02-25T04:25:27.500Z,8.48
2018-02-25T04:27:57.372Z,7.35
2018-02-25T04:30:25.787Z,7.10
2018-02-25T04:33:00.118Z,7.80
2018-02-25T04:35:29.154Z,7.43
2018-02-25T04:37:57.445Z,8.20
2018-02-25T04:40:25.740Z,7.28
2018-02-25T04:42:57.482Z,7.72
2018-02-25T04:45:25.772Z,8.45
2018-02-25T04:48:01.045Z,6.53
2018-02-25T04:50:29.325Z,7.95
2018-02-25T04:52:57.735Z,6.07
2018-02-25T04:55:26.036Z,9.23
2018-02-25T04:58:00.101Z,9.20
2018-02-25T05:00:28.591Z,8.70
2018-02-25T05:02:57.637Z,8.13
2018-02-25T05:05:26.608Z,8.38
2018-02-25T05:07:58.939Z,8.88
2018-02-25T05:10:27.206Z,11.57
2018-02-25T05:12:59.248Z,8.98
2018-02-25T05:15:27.543Z,10.27
2018-02-25T05:17:57.398Z,9.15
2018-02-25T05:20:25.713Z,8.02
2018-02-25T05:22:57.281Z,7.53
2018-02-25T05:25:25.553Z,7.70
2018-02-25T05:27:57.464Z,10.13
2018-02-25T05:30:25.743Z,9.68
2018-02-25T05:32:58.708Z,9.55
2018-02-25T05:35:27.023Z,8.57
2018-02-25T05:37:58.758Z,10.98
2018-02-25T05:40:27.052Z,9.85
2018-02-25T05:42:58.893Z,10.02
2018-02-25T05:45:27.763Z,8.35
2018-02-25T05:47:59.211Z,9.63
2018-02-25T05:50:27.462Z,9.07
2018-02-25T05:53:00.772Z,8.57
2018-02-25T05:55:30.157Z,9.38
2018-02-25T05:57:58.428Z,9.00
2018-02-25T06:00:26.744Z,9.23
2018-02-25T06:02:58.280Z,9.93
2018-02-25T06:05:26.581Z,10.82
2018-02-25T06:07:58.809Z,8.50
2018-02-25T06:10:27.101Z,10.45
2018-02-25T06:12:59.019Z,9.38
2018-02-25T06:15:27.329Z,11.65
2018-02-25T06:17:59.351Z,9.52
2018-02-25T06:20:27.632Z,11.55
2018-02-25T06:22:57.644Z,9.65
2018-02-25T06:25:25.950Z,10.85
2018-02-25T06:28:00.562Z,10.57
2018-02-25T06:30:33.268Z,11.57
2018-02-25T06:33:01.571Z,11.20
2018-02-25T06:35:29.856Z,10.80
2018-02-25T06:37:59.156Z,13.73
2018-02-25T06:40:27.440Z,10.75
2018-02-25T06:42:59.085Z,11.18
2018-02-25T06:45:27.408Z,11.40
2018-02-25T06:47:56.423Z,9.77
2018-02-25T06:50:24.701Z,11.73
2018-02-25T06:52:58.797Z,10.43
2018-02-25T06:55:27.517Z,10.45
2018-02-25T06:57:57.670Z,10.57
2018-02-25T07:00:25.958Z,9.68
2018-02-25T07:02:57.485Z,11.43
2018-02-25T07:05:25.767Z,8.85
2018-02-25T07:07:56.458Z,8.30
2018-02-25T07:10:24.887Z,10.10
2018-02-25T07:13:00.037Z,9.43
2018-02-25T07:15:28.309Z,9.88
2018-02-25T07:17:57.252Z,9.95
2018-02-25T07:20:26.394Z,9.90
2018-02-25T07:22:58.338Z,10.10
2018-02-25T07:25:26.625Z,8.43
2018-02-25T07:27:56.724Z,9.93
2018-02-25T07:30:25.016Z,9.70
2018-02-25T07:32:57.125Z,8.30
2018-02-25T07:35:25.477Z,10.13
2018-02-25T07:37:58.690Z,22.08
2018-02-25T07:40:26.986Z,9.15
2018-02-25T07:42:57.018Z,9.77
2018-02-25T07:45:25.345Z,9.98
2018-02-25T07:47:58.417Z,7.85
2018-02-25T07:50:26.725Z,7.18
2018-02-25T07:52:56.845Z,7.70
2018-02-25T07:55:25.495Z,7.93
2018-02-25T07:57:57.309Z,8.70
2018-02-25T08:00:26.030Z,8.40
2018-02-25T08:02:57.468Z,10.77
2018-02-25T08:05:25.766Z,8.15
2018-02-25T08:07:57.902Z,9.73
2018-02-25T08:10:26.205Z,10.50
2018-02-25T08:12:58.322Z,8.52
2018-02-25T08:15:26.623Z,9.73
2018-02-25T08:17:56.640Z,7.72
2018-02-25T08:20:24.929Z,9.27
2018-02-25T08:22:56.221Z,6.93
2018-02-25T08:25:24.515Z,7.50
2018-02-25T08:27:59.707Z,8.18
2018-02-25T08:30:32.750Z,7.40
2018-02-25T08:33:01.248Z,10.05
2018-02-25T08:35:29.568Z,7.43
2018-02-25T08:37:57.829Z,7.87
2018-02-25T08:40:26.107Z,7.95
2018-02-25T08:42:57.941Z,7.65
2018-02-25T08:45:26.221Z,8.63
2018-02-25T08:47:57.454Z,7.30
2018-02-25T08:50:26.027Z,7.12
2018-02-25T08:52:57.727Z,7.05
2018-02-25T08:55:26.146Z,8.07
2018-02-25T08:57:58.785Z,7.32
2018-02-25T09:00:27.145Z,8.70
2018-02-25T09:02:57.241Z,9.05
2018-02-25T09:05:26.160Z,7.87
2018-02-25T09:08:01.409Z,8.73
2018-02-25T09:10:29.761Z,10.20
2018-02-25T09:12:58.072Z,8.98
2018-02-25T09:15:26.358Z,10.50
2018-02-25T09:17:58.063Z,6.72
2018-02-25T09:20:26.350Z,7.45
2018-02-25T09:22:56.525Z,8.15
2018-02-25T09:25:24.824Z,6.37
2018-02-25T09:27:56.619Z,7.80
2018-02-25T09:30:24.922Z,7.40
2018-02-25T09:32:56.549Z,6.87
2018-02-25T09:35:24.837Z,8.77
2018-02-25T09:37:56.820Z,7.05
2018-02-25T09:40:25.152Z,10.35
2018-02-25T09:42:56.466Z,9.10
2018-02-25T09:45:24.762Z,6.45
2018-02-25T09:48:00.242Z,6.97
2018-02-25T09:50:28.720Z,7.10
2018-02-25T09:52:56.969Z,7.07
2018-02-25T09:55:25.518Z,8.55
2018-02-25T09:57:56.708Z,5.28
2018-02-25T10:00:25.010Z,6.82
2018-02-25T10:02:56.404Z,5.65
2018-02-25T10:05:24.911Z,5.70
2018-02-25T10:08:00.234Z,6.32
2018-02-25T10:10:28.668Z,6.47
2018-02-25T10:12:56.942Z,5.78
2018-02-25T10:15:25.386Z,4.47
2018-02-25T10:17:57.383Z,6.22
2018-02-25T10:20:25.825Z,7.07
2018-02-25T10:22:57.757Z,6.03
2018-02-25T10:25:26.042Z,4.82
2018-02-25T10:27:58.068Z,5.60
2018-02-25T10:30:26.681Z,4.97
2018-02-25T10:32:57.146Z,5.05
2018-02-25T10:35:25.438Z,6.30
2018-02-25T10:37:57.282Z,5.45
2018-02-25T10:40:25.573Z,5.27
2018-02-25T10:42:56.793Z,4.87
2018-02-25T10:45:25.094Z,5.57
2018-02-25T10:47:57.097Z,5.23
2018-02-25T10:50:25.402Z,5.90
2018-02-25T10:52:57.528Z,4.93
2018-02-25T10:55:26.283Z,4.87
2018-02-25T10:57:58.677Z,5.20
2018-02-25T11:00:32.823Z,4.40
2018-02-25T11:03:01.092Z,4.90
2018-02-25T11:05:29.410Z,5.90
2018-02-25T11:07:57.644Z,4.07
2018-02-25T11:10:25.920Z,5.47
2018-02-25T11:12:57.928Z,4.40
2018-02-25T11:15:26.288Z,5.40
2018-02-25T11:17:58.298Z,4.57
2018-02-25T11:20:26.577Z,4.40
2018-02-25T11:22:56.644Z,3.90
2018-02-25T11:25:24.930Z,4.53
2018-02-25T11:28:00.086Z,3.70
2018-02-25T11:30:28.362Z,4.80
2018-02-25T11:32:57.413Z,4.37
2018-02-25T11:35:25.814Z,3.83
2018-02-25T11:37:57.538Z,4.83
2018-02-25T11:40:25.830Z,4.30
2018-02-25T11:42:57.018Z,6.50
2018-02-25T11:45:25.616Z,3.90
2018-02-25T11:47:57.545Z,4.63
2018-02-25T11:50:25.833Z,3.27
2018-02-25T11:52:57.997Z,3.70
2018-02-25T11:55:26.315Z,9.23
2018-02-25T11:57:57.464Z,5.80
2018-02-25T12:00:25.773Z,6.63
2018-02-25T12:02:58.566Z,6.47
2018-02-25T12:05:26.872Z,3.80
2018-02-25T12:07:58.285Z,4.73
2018-02-25T12:10:26.613Z,8.23
2018-02-25T12:12:56.667Z,4.73
2018-02-25T12:15:25.178Z,4.10
2018-02-25T12:17:59.230Z,5.40
2018-02-25T12:20:27.685Z,5.30
2018-02-25T12:22:56.704Z,6.23
2018-02-25T12:25:24.980Z,4.20
2018-02-25T12:28:00.058Z,4.53
2018-02-25T12:30:28.351Z,3.83
2018-02-25T12:32:56.634Z,4.20
2018-02-25T12:35:24.922Z,3.43
2018-02-25T12:37:56.468Z,4.03
2018-02-25T12:40:24.743Z,4.13
2018-02-25T12:42:56.239Z,4.37
2018-02-25T12:45:24.705Z,3.90
2018-02-25T12:47:56.276Z,5.10
2018-02-25T12:50:24.546Z,5.30
2018-02-25T12:52:58.733Z,4.90
2018-02-25T12:55:27.004Z,5.13
2018-02-25T12:57:57.051Z,4.07
2018-02-25T13:00:25.331Z,5.53
2018-02-25T13:02:56.607Z,5.37
2018-02-25T13:05:24.886Z,4.10
2018-02-25T13:07:56.296Z,4.23
2018-02-25T13:10:24.593Z,4.90
2018-02-25T13:12:59.689Z,5.40
2018-02-25T13:15:27.972Z,4.17
2018-02-25T13:17:56.864Z,3.77
2018-02-25T13:20:29.590Z,3.97
2018-02-25T13:22:57.907Z,3.43
2018-02-25T13:25:26.435Z,4.50
2018-02-25T13:27:57.760Z,3.93
2018-02-25T13:30:26.045Z,4.30
2018-02-25T13:32:57.252Z,3.80
2018-02-25T13:35:25.534Z,3.70
2018-02-25T13:37:57.618Z,3.87
2018-02-25T13:40:25.902Z,4.73
2018-02-25T13:42:58.030Z,4.03
2018-02-25T13:45:26.330Z,3.53
2018-02-25T13:47:57.672Z,4.37
2018-02-25T13:50:25.929Z,3.93
2018-02-25T13:52:58.109Z,4.20
2018-02-25T13:55:26.377Z,4.57
2018-02-25T13:57:57.650Z,4.33
2018-02-25T14:00:26.081Z,4.82
2018-02-25T14:02:58.894Z,4.47
2018-02-25T14:05:27.169Z,4.12
2018-02-25T14:07:59.332Z,3.58
2018-02-25T14:10:27.621Z,2.85
2018-02-25T14:12:56.956Z,5.55
2018-02-25T14:15:25.263Z,5.05
2018-02-25T14:17:57.176Z,4.82
2018-02-25T14:20:25.455Z,4.12
2018-02-25T14:22:57.603Z,3.62
2018-02-25T14:25:25.913Z,4.32
2018-02-25T14:27:57.465Z,4.82
2018-02-25T14:30:25.787Z,3.55
2018-02-25T14:32:56.594Z,4.43
2018-02-25T14:35:25.165Z,5.87
2018-02-25T14:37:57.536Z,4.28
2018-02-25T14:40:25.824Z,4.50
2018-02-25T14:42:57.652Z,7.93
2018-02-25T14:45:25.988Z,5.07
2018-02-25T14:47:58.164Z,4.80
2018-02-25T14:50:26.495Z,3.00
2018-02-25T14:52:57.925Z,3.10
2018-02-25T14:55:26.637Z,3.00
2018-02-25T14:57:56.489Z,9.48
2018-02-25T15:00:26.250Z,4.20
2018-02-25T15:02:57.885Z,4.22
2018-02-25T15:05:26.720Z,3.95
2018-02-25T15:07:56.501Z,4.25
2018-02-25T15:10:24.806Z,3.85
2018-02-25T15:12:57.043Z,3.10
2018-02-25T15:15:25.353Z,3.65
2018-02-25T15:17:58.349Z,4.05
2018-02-25T15:20:26.637Z,4.15
2018-02-25T15:22:56.531Z,3.55
2018-02-25T15:25:24.874Z,3.50
2018-02-25T15:27:56.375Z,3.15
2018-02-25T15:30:24.837Z,3.75
2018-02-25T15:33:00.106Z,3.58
2018-02-25T15:35:28.385Z,3.67
2018-02-25T15:37:56.978Z,3.70
2018-02-25T15:40:25.335Z,3.65
2018-02-25T15:42:57.425Z,4.47
2018-02-25T15:45:25.721Z,2.70
2018-02-25T15:47:57.248Z,4.80
2018-02-25T15:50:25.579Z,4.07
2018-02-25T15:52:56.777Z,3.75
2018-02-25T15:55:25.067Z,3.28
2018-02-25T15:57:57.260Z,3.22
2018-02-25T16:00:25.591Z,4.90
2018-02-25T16:02:58.572Z,4.95
2018-02-25T16:05:26.848Z,3.67
2018-02-25T16:07:58.282Z,3.92
2018-02-25T16:10:26.669Z,3.35
2018-02-25T16:12:56.586Z,2.97
2018-02-25T16:15:24.855Z,4.28
2018-02-25T16:17:57.827Z,5.10
2018-02-25T16:20:26.451Z,4.62
2018-02-25T16:22:58.690Z,3.58
2018-02-25T16:25:26.975Z,4.80
2018-02-25T16:27:57.236Z,3.08
2018-02-25T16:30:25.809Z,4.40
2018-02-25T16:32:57.531Z,3.95
2018-02-25T16:35:25.812Z,4.22
2018-02-25T16:37:57.933Z,4.00
2018-02-25T16:40:26.503Z,4.53
2018-02-25T16:42:58.198Z,6.40
2018-02-25T16:45:30.460Z,4.62
2018-02-25T16:47:58.992Z,4.95
2018-02-25T16:50:27.330Z,4.40
2018-02-25T16:52:57.128Z,3.87
2018-02-25T16:55:26.177Z,5.72
2018-02-25T16:57:57.786Z,3.70
2018-02-25T17:00:26.393Z,4.55
2018-02-25T17:02:58.384Z,3.95
2018-02-25T17:05:26.766Z,3.78
2018-02-25T17:07:56.671Z,5.10
2018-02-25T17:10:24.975Z,5.30
2018-02-25T17:12:57.329Z,3.60
2018-02-25T17:15:25.657Z,4.07
2018-02-25T17:17:57.765Z,3.78
2018-02-25T17:20:26.054Z,4.28
2018-02-25T17:22:57.389Z,3.35
2018-02-25T17:25:25.678Z,4.85
2018-02-25T17:27:56.765Z,4.18
2018-02-25T17:30:25.315Z,4.18
2018-02-25T17:32:59.258Z,4.78
2018-02-25T17:35:28.026Z,5.65
2018-02-25T17:37:56.977Z,4.72
2018-02-25T17:40:25.242Z,6.30
2018-02-25T17:42:57.396Z,3.92
2018-02-25T17:45:25.686Z,4.93
2018-02-25T17:47:57.541Z,5.85
2018-02-25T17:50:25.814Z,4.78
2018-02-25T17:52:56.576Z,3.37
2018-02-25T17:55:33.356Z,4.85
2018-02-25T17:57:56.470Z,3.87
2018-02-25T18:00:24.740Z,4.35
2018-02-25T18:02:56.239Z,5.30
2018-02-25T18:05:24.530Z,3.62
2018-02-25T18:07:56.053Z,5.68
2018-02-25T18:10:24.664Z,3.45
2018-02-25T18:12:57.377Z,4.43
2018-02-25T18:15:25.677Z,4.12
2018-02-25T18:17:57.805Z,3.62
2018-02-25T18:20:26.202Z,4.62
2018-02-25T18:22:58.280Z,3.85
2018-02-25T18:25:26.784Z,8.75
2018-02-25T18:27:58.611Z,4.60
2018-02-25T18:30:26.909Z,3.67
2018-02-25T18:32:58.236Z,4.10
2018-02-25T18:35:26.818Z,3.00
2018-02-25T18:37:58.592Z,5.00
2018-02-25T18:40:26.870Z,4.95
2018-02-25T18:42:56.695Z,3.33
2018-02-25T18:45:24.974Z,3.58
2018-02-25T18:48:00.157Z,4.32
2018-02-25T18:50:28.488Z,3.72
2018-02-25T18:52:56.805Z,3.22
2018-02-25T18:55:25.114Z,4.03
2018-02-25T18:57:56.561Z,3.10
2018-02-25T19:00:24.867Z,4.78
2018-02-25T19:02:56.568Z,4.50
2018-02-25T19:05:24.869Z,4.00
2018-02-25T19:07:56.265Z,4.70
2018-02-25T19:10:24.562Z,3.95
2018-02-25T19:12:58.790Z,3.97
2018-02-25T19:15:27.070Z,3.53
2018-02-25T19:17:57.262Z,4.70
2018-02-25T19:20:25.631Z,3.40
2018-02-25T19:22:58.231Z,5.37
2018-02-25T19:25:26.576Z,4.03
2018-02-25T19:27:58.260Z,4.30
2018-02-25T19:30:26.544Z,4.65
2018-02-25T19:32:58.506Z,4.20
2018-02-25T19:35:26.882Z,3.15
2018-02-25T19:38:04.069Z,3.47
2018-02-25T19:40:38.031Z,4.82
2018-02-25T19:43:06.376Z,3.70
2018-02-25T19:45:34.686Z,3.97
2018-02-25T19:48:03.018Z,4.62
2018-02-25T19:50:31.384Z,4.12
2018-02-25T19:52:59.712Z,4.00
2018-02-25T19:55:27.993Z,3.72
2018-02-25T19:57:56.640Z,5.53
2018-02-25T20:00:24.943Z,5.03
2018-02-25T20:02:56.471Z,5.47
2018-02-25T20:05:24.790Z,4.05
2018-02-25T20:07:56.719Z,3.75
2018-02-25T20:10:25.009Z,4.28
2018-02-25T20:12:56.970Z,3.85
2018-02-25T20:15:25.260Z,5.37
2018-02-25T20:17:59.476Z,5.03
2018-02-25T20:20:27.965Z,4.43
2018-02-25T20:22:57.249Z,2.72
2018-02-25T20:25:25.571Z,6.75
2018-02-25T20:27:57.605Z,4.70
2018-02-25T20:30:25.910Z,3.35
2018-02-25T20:32:57.941Z,5.60
2018-02-25T20:35:26.242Z,6.10
2018-02-25T20:37:58.669Z,4.22
2018-02-25T20:40:26.945Z,3.22
2018-02-25T20:42:58.578Z,4.57
2018-02-25T20:45:27.179Z,4.55
2018-02-25T20:47:57.275Z,5.95
2018-02-25T20:50:25.559Z,5.57
2018-02-25T20:52:56.937Z,3.50
2018-02-25T20:55:25.222Z,4.05
2018-02-25T20:57:57.284Z,4.65
2018-02-25T21:00:25.662Z,4.60
2018-02-25T21:02:57.646Z,3.62
2018-02-25T21:05:25.925Z,3.97
2018-02-25T21:07:58.068Z,4.35
2018-02-25T21:10:26.340Z,4.00
2018-02-25T21:12:58.543Z,3.30
2018-02-25T21:15:27.176Z,4.80
2018-02-25T21:17:57.010Z,4.93
2018-02-25T21:20:25.297Z,4.70
2018-02-25T21:22:57.396Z,3.47
2018-02-25T21:25:25.661Z,4.10
2018-02-25T21:27:57.703Z,3.30
2018-02-25T21:30:25.992Z,6.20
2018-02-25T21:32:58.042Z,3.85
2018-02-25T21:35:26.345Z,3.10
2018-02-25T21:37:59.824Z,4.72
2018-02-25T21:40:28.117Z,3.78
2018-02-25T21:42:56.924Z,4.65
2018-02-25T21:45:25.205Z,2.97
2018-02-25T21:47:56.904Z,4.18
2018-02-25T21:50:25.819Z,4.50
2018-02-25T21:52:57.312Z,5.35
2018-02-25T21:55:25.602Z,3.70
2018-02-25T21:58:04.098Z,4.30
2018-02-25T22:00:38.045Z,4.00
2018-02-25T22:03:12.637Z,5.05
2018-02-25T22:05:40.914Z,3.47
2018-02-25T22:08:09.193Z,3.50
2018-02-25T22:10:37.515Z,3.97
2018-02-25T22:13:05.798Z,4.37
2018-02-25T22:15:34.312Z,4.05
2018-02-25T22:18:02.603Z,4.53
2018-02-25T22:20:30.890Z,3.97
2018-02-25T22:22:59.174Z,5.47
2018-02-25T22:25:27.681Z,4.75
2018-02-25T22:27:57.364Z,6.22
2018-02-25T22:30:25.662Z,5.22
2018-02-25T22:32:57.491Z,4.87
2018-02-25T22:35:25.795Z,6.85
2018-02-25T22:37:57.947Z,3.42
2018-02-25T22:40:26.240Z,4.28
2018-02-25T22:42:57.459Z,4.87
2018-02-25T22:45:25.848Z,5.43
2018-02-25T22:47:57.075Z,4.68
2018-02-25T22:50:25.371Z,4.47
2018-02-25T22:52:56.776Z,4.30
2018-02-25T22:55:25.081Z,4.90
2018-02-25T22:57:57.098Z,3.90
2018-02-25T23:00:25.421Z,4.87
2018-02-25T23:02:56.019Z,6.07
2018-02-25T23:05:24.302Z,6.45
2018-02-25T23:07:55.746Z,4.12
2018-02-25T23:10:24.288Z,5.05
2018-02-25T23:12:59.041Z,6.22
2018-02-25T23:15:27.400Z,4.35
2018-02-25T23:17:57.457Z,6.35
2018-02-25T23:20:25.753Z,6.22
2018-02-25T23:22:57.104Z,4.80
2018-02-25T23:25:25.381Z,5.07
2018-02-25T23:27:57.491Z,4.18
2018-02-25T23:30:25.788Z,5.07
2018-02-25T23:32:57.031Z,8.23
2018-02-25T23:35:25.617Z,6.22
2018-02-25T23:37:57.343Z,5.50
2018-02-25T23:40:25.626Z,5.53
2018-02-25T23:42:57.066Z,6.20
2018-02-25T23:45:25.701Z,6.30
2018-02-25T23:47:57.758Z,4.78
2018-02-25T23:50:26.042Z,6.65
2018-02-25T23:52:57.428Z,4.97
2018-02-25T23:55:25.658Z,5.43
2018-02-25T23:57:56.993Z,4.82
